UKL08K ELLX-EDDP
Flight info
| Callsign | UKL08K |
|---|---|
| Flight time | N/A |
| Altitude | 23000 |
| Route | ASMOX Y891 ROPUV/N0443F330 L607 UBIDU L984 BOMBI Z728 MASEK T278 TAMEB T955 GOXLI GOXLI1R |
| Aircraft | A306/H-SDE3FGHIRWY/LB1 |
Departure
| Time | 2026-05-05 09:24 |
|---|---|
| Airport | Luxembourg-Findel International Airport (ELLX) |
Arrival
| Time | N/A |
|---|---|
| Airport | Leipzig/Halle Airport (EDDP) |
| Time | Latitude | Longitude | Altitude | Speed | Heading |
|---|---|---|---|---|---|
| 2026-05-05 08:59 | 49.63542 | 6.22684 | 1221 ft | 0 kts | 243° |
| 2026-05-05 09:15 | 49.63547 | 6.22699 | 1221 ft | 4 kts | 240° |
| 2026-05-05 09:15 | 49.63561 | 6.22734 | 1220 ft | 4 kts | 231° |
| 2026-05-05 09:16 | 49.63580 | 6.22763 | 1220 ft | 4 kts | 212° |
| 2026-05-05 09:16 | 49.63602 | 6.22775 | 1220 ft | 4 kts | 161° |
| 2026-05-05 09:16 | 49.63608 | 6.22772 | 1220 ft | 2 kts | 150° |
| 2026-05-05 09:20 | 49.63592 | 6.22787 | 1220 ft | 3 kts | 149° |
| 2026-05-05 09:20 | 49.63576 | 6.22802 | 1220 ft | 7 kts | 149° |
| 2026-05-05 09:20 | 49.63515 | 6.22836 | 1220 ft | 10 kts | 187° |
| 2026-05-05 09:21 | 49.63485 | 6.22818 | 1220 ft | 0 kts | 203° |
| 2026-05-05 09:21 | 49.63478 | 6.22825 | 1220 ft | 2 kts | 148° |
| 2026-05-05 09:21 | 49.63480 | 6.22850 | 1220 ft | 3 kts | 71° |
| 2026-05-05 09:21 | 49.63508 | 6.22935 | 1220 ft | 15 kts | 60° |
| 2026-05-05 09:22 | 49.63578 | 6.23129 | 1219 ft | 24 kts | 62° |
| 2026-05-05 09:22 | 49.63657 | 6.23349 | 1218 ft | 22 kts | 61° |
| 2026-05-05 09:22 | 49.63664 | 6.23439 | 1217 ft | 3 kts | 130° |
| 2026-05-05 09:22 | 49.63611 | 6.23490 | 1219 ft | 13 kts | 154° |
| 2026-05-05 09:23 | 49.63519 | 6.23483 | 1222 ft | 17 kts | 219° |
| 2026-05-05 09:23 | 49.63425 | 6.23260 | 1220 ft | 36 kts | 240° |
| 2026-05-05 09:23 | 49.63194 | 6.22638 | 1216 ft | 97 kts | 240° |
| 2026-05-05 09:23 | 49.62772 | 6.21500 | 1229 ft | 145 kts | 240° |
| 2026-05-05 09:24 | 49.62193 | 6.19950 | 1262 ft | 188 kts | 239° |
| 2026-05-05 09:24 | 49.61522 | 6.18032 | 1506 ft | 214 kts | 241° |
| 2026-05-05 09:24 | 49.60814 | 6.15931 | 2089 ft | 232 kts | 242° |
| 2026-05-05 09:24 | 49.60023 | 6.13622 | 2582 ft | 255 kts | 240° |
| 2026-05-05 09:25 | 49.59084 | 6.11159 | 3080 ft | 272 kts | 237° |
| 2026-05-05 09:25 | 49.58134 | 6.08768 | 3668 ft | 247 kts | 237° |
| 2026-05-05 09:25 | 49.57290 | 6.06552 | 4000 ft | 238 kts | 239° |
| 2026-05-05 09:25 | 49.56680 | 6.04088 | 4413 ft | 258 kts | 259° |
| 2026-05-05 09:26 | 49.56797 | 6.01280 | 5197 ft | 270 kts | 286° |
| 2026-05-05 09:26 | 49.57774 | 5.98796 | 6086 ft | 278 kts | 315° |
| 2026-05-05 09:26 | 49.59440 | 5.97286 | 7001 ft | 283 kts | 344° |
| 2026-05-05 09:26 | 49.61390 | 5.97176 | 7946 ft | 285 kts | 12° |
| 2026-05-05 09:27 | 49.63204 | 5.98429 | 8852 ft | 289 kts | 33° |
| 2026-05-05 09:27 | 49.64883 | 6.00199 | 9712 ft | 295 kts | 36° |
| 2026-05-05 09:27 | 49.66579 | 6.02066 | 10356 ft | 308 kts | 36° |
| 2026-05-05 09:27 | 49.68388 | 6.04046 | 10716 ft | 328 kts | 36° |
| 2026-05-05 09:28 | 49.70308 | 6.06125 | 11007 ft | 346 kts | 35° |
| 2026-05-05 09:28 | 49.72334 | 6.08304 | 11311 ft | 363 kts | 35° |
| 2026-05-05 09:28 | 49.74448 | 6.10572 | 11654 ft | 376 kts | 35° |
| 2026-05-05 09:28 | 49.76619 | 6.12900 | 12189 ft | 383 kts | 35° |
| 2026-05-05 09:29 | 49.78822 | 6.15264 | 12813 ft | 387 kts | 35° |
| 2026-05-05 09:29 | 49.81040 | 6.17645 | 13429 ft | 390 kts | 35° |
| 2026-05-05 09:29 | 49.83287 | 6.20060 | 13938 ft | 396 kts | 35° |
| 2026-05-05 09:29 | 49.85560 | 6.22506 | 14488 ft | 400 kts | 35° |
| 2026-05-05 09:30 | 49.87855 | 6.24979 | 15029 ft | 403 kts | 36° |
| 2026-05-05 09:30 | 49.90187 | 6.27437 | 15566 ft | 407 kts | 33° |
| 2026-05-05 09:30 | 49.92668 | 6.29595 | 16122 ft | 411 kts | 28° |
| 2026-05-05 09:30 | 49.95263 | 6.31523 | 16694 ft | 415 kts | 25° |
| 2026-05-05 09:31 | 49.97915 | 6.33351 | 17244 ft | 419 kts | 24° |
| 2026-05-05 09:31 | 50.00605 | 6.35167 | 17778 ft | 423 kts | 24° |
| 2026-05-05 09:31 | 50.03309 | 6.37009 | 18337 ft | 425 kts | 24° |
| 2026-05-05 09:31 | 50.05920 | 6.39123 | 18918 ft | 424 kts | 33° |
| 2026-05-05 09:32 | 50.08223 | 6.41995 | 19247 ft | 428 kts | 46° |
| 2026-05-05 09:32 | 50.10038 | 6.45687 | 19605 ft | 431 kts | 59° |
| 2026-05-05 09:32 | 50.11534 | 6.49732 | 20044 ft | 432 kts | 64° |
| 2026-05-05 09:32 | 50.12884 | 6.53925 | 20493 ft | 434 kts | 66° |
| 2026-05-05 09:33 | 50.14168 | 6.58191 | 20930 ft | 436 kts | 67° |
| 2026-05-05 09:33 | 50.15438 | 6.62497 | 21355 ft | 439 kts | 67° |
| 2026-05-05 09:33 | 50.16708 | 6.66780 | 21788 ft | 442 kts | 67° |
| 2026-05-05 09:33 | 50.18014 | 6.71133 | 22231 ft | 444 kts | 67° |
| 2026-05-05 09:34 | 50.19358 | 6.75565 | 22627 ft | 447 kts | 66° |
| 2026-05-05 09:34 | 50.20679 | 6.79895 | 23002 ft | 449 kts | 67° |
| 2026-05-05 09:34 | 50.21656 | 6.84494 | 23251 ft | 446 kts | 82° |
| 2026-05-05 09:34 | 50.21889 | 6.89306 | 23503 ft | 444 kts | 91° |
| 2026-05-05 09:35 | 50.21835 | 6.94141 | 23660 ft | 447 kts | 95° |
| 2026-05-05 09:35 | 50.21346 | 7.03851 | 24038 ft | 450 kts | 98° |
| 2026-05-05 09:35 | 50.21041 | 7.08720 | 24255 ft | 452 kts | 98° |
| 2026-05-05 09:36 | 50.20737 | 7.13610 | 24463 ft | 454 kts | 98° |
| 2026-05-05 09:36 | 50.20444 | 7.18517 | 24739 ft | 455 kts | 97° |
| 2026-05-05 09:36 | 50.20161 | 7.23457 | 24976 ft | 458 kts | 97° |
| 2026-05-05 09:36 | 50.19885 | 7.28421 | 25178 ft | 460 kts | 97° |
| 2026-05-05 09:37 | 50.19374 | 7.33332 | 25366 ft | 458 kts | 107° |
| 2026-05-05 09:37 | 50.18528 | 7.38133 | 25544 ft | 460 kts | 109° |
| 2026-05-05 09:37 | 50.17590 | 7.42912 | 25709 ft | 461 kts | 110° |
| 2026-05-05 09:37 | 50.16596 | 7.47671 | 25932 ft | 462 kts | 111° |
| 2026-05-05 09:38 | 50.15574 | 7.52423 | 26105 ft | 463 kts | 111° |
| 2026-05-05 09:38 | 50.14540 | 7.57192 | 26310 ft | 464 kts | 111° |
| 2026-05-05 09:38 | 50.13505 | 7.61967 | 26486 ft | 466 kts | 111° |
| 2026-05-05 09:38 | 50.12471 | 7.66756 | 26679 ft | 467 kts | 111° |
| 2026-05-05 09:39 | 50.11437 | 7.71563 | 26846 ft | 469 kts | 111° |
| 2026-05-05 09:39 | 50.10399 | 7.76391 | 27034 ft | 470 kts | 111° |
| 2026-05-05 09:39 | 50.09361 | 7.81223 | 27199 ft | 471 kts | 111° |
| 2026-05-05 09:39 | 50.08321 | 7.86056 | 27431 ft | 471 kts | 111° |
| 2026-05-05 09:40 | 50.07358 | 7.90944 | 27583 ft | 474 kts | 107° |
| 2026-05-05 09:40 | 50.06550 | 7.95920 | 27759 ft | 476 kts | 107° |
| 2026-05-05 09:40 | 50.05767 | 8.00939 | 27910 ft | 477 kts | 106° |
| 2026-05-05 09:40 | 50.05092 | 8.06005 | 28072 ft | 481 kts | 101° |
| 2026-05-05 09:41 | 50.04860 | 8.11210 | 28235 ft | 484 kts | 94° |
| 2026-05-05 09:41 | 50.04827 | 8.16460 | 28494 ft | 485 kts | 92° |
| 2026-05-05 09:41 | 50.04865 | 8.21699 | 28731 ft | 485 kts | 92° |
| 2026-05-05 09:41 | 50.04936 | 8.26938 | 28962 ft | 485 kts | 91° |
| 2026-05-05 09:42 | 50.05018 | 8.32192 | 29154 ft | 485 kts | 91° |
| 2026-05-05 09:42 | 50.05097 | 8.37430 | 29387 ft | 485 kts | 92° |
| 2026-05-05 09:42 | 50.05167 | 8.42604 | 29616 ft | 484 kts | 92° |
| 2026-05-05 09:42 | 50.05229 | 8.47903 | 29829 ft | 484 kts | 92° |
| 2026-05-05 09:43 | 50.05284 | 8.53134 | 30039 ft | 484 kts | 92° |
| 2026-05-05 09:43 | 50.05333 | 8.58302 | 30208 ft | 484 kts | 92° |
| 2026-05-05 09:43 | 50.05382 | 8.63531 | 30383 ft | 484 kts | 92° |
| 2026-05-05 09:43 | 50.05620 | 8.68777 | 30544 ft | 488 kts | 85° |
| 2026-05-05 09:44 | 50.06383 | 8.74009 | 30729 ft | 492 kts | 75° |
| 2026-05-05 09:44 | 50.07687 | 8.78879 | 30895 ft | 496 kts | 64° |
| 2026-05-05 09:44 | 50.09568 | 8.83385 | 31079 ft | 499 kts | 52° |
| 2026-05-05 09:44 | 50.11974 | 8.87298 | 31240 ft | 500 kts | 41° |
| 2026-05-05 09:45 | 50.14662 | 8.90724 | 31442 ft | 500 kts | 38° |
| 2026-05-05 09:45 | 50.17426 | 8.94021 | 31613 ft | 500 kts | 36° |
| 2026-05-05 09:45 | 50.20217 | 8.97250 | 31803 ft | 500 kts | 36° |
| 2026-05-05 09:45 | 50.23020 | 9.00468 | 31980 ft | 500 kts | 36° |
| 2026-05-05 09:46 | 50.25824 | 9.03702 | 32178 ft | 501 kts | 36° |
| 2026-05-05 09:46 | 50.28586 | 9.06913 | 32355 ft | 501 kts | 36° |
| 2026-05-05 09:46 | 50.31372 | 9.10179 | 32545 ft | 501 kts | 36° |
| 2026-05-05 09:46 | 50.34153 | 9.13458 | 32742 ft | 501 kts | 36° |
| 2026-05-05 09:47 | 50.36934 | 9.16750 | 32854 ft | 498 kts | 36° |
| 2026-05-05 09:47 | 50.39650 | 9.19975 | 32854 ft | 481 kts | 36° |
| 2026-05-05 09:47 | 50.42270 | 9.23093 | 32853 ft | 465 kts | 36° |
| 2026-05-05 09:47 | 50.44814 | 9.26123 | 32861 ft | 457 kts | 36° |
| 2026-05-05 09:48 | 50.49877 | 9.32156 | 32863 ft | 457 kts | 36° |
| 2026-05-05 09:48 | 50.54948 | 9.38210 | 32869 ft | 458 kts | 36° |
| 2026-05-05 09:49 | 50.59154 | 9.43247 | 32868 ft | 458 kts | 36° |